createdAt,value
2023-07-06T00:00:29.220Z,16.86
2023-07-06T00:02:55.613Z,16.79
2023-07-06T00:05:22.253Z,16.63
2023-07-06T00:07:48.620Z,16.46
2023-07-06T00:10:15.187Z,16.57
2023-07-06T00:12:41.561Z,16.68
2023-07-06T00:15:08.077Z,16.76
2023-07-06T00:17:34.792Z,16.77
2023-07-06T00:20:01.219Z,16.80
2023-07-06T00:22:27.594Z,16.84
2023-07-06T00:24:53.954Z,16.88
2023-07-06T00:27:20.300Z,16.92
2023-07-06T00:29:46.766Z,16.94
2023-07-06T00:32:13.193Z,16.99
2023-07-06T00:34:39.533Z,16.88
2023-07-06T00:37:05.889Z,16.86
2023-07-06T00:39:32.237Z,16.85
2023-07-06T00:41:58.601Z,16.88
2023-07-06T00:44:25.041Z,16.89
2023-07-06T00:46:51.554Z,16.88
2023-07-06T00:49:20.301Z,16.89
2023-07-06T00:51:46.891Z,16.90
2023-07-06T00:54:13.283Z,16.88
2023-07-06T00:56:39.660Z,16.88
2023-07-06T00:59:06.222Z,16.86
2023-07-06T01:01:32.603Z,16.86
2023-07-06T01:03:59.000Z,16.87
2023-07-06T01:06:25.399Z,16.85
2023-07-06T01:08:51.861Z,16.85
2023-07-06T01:11:18.266Z,16.79
2023-07-06T01:13:46.875Z,16.73
2023-07-06T01:16:14.494Z,16.71
2023-07-06T01:18:41.054Z,16.72
2023-07-06T01:21:07.423Z,16.71
2023-07-06T01:23:33.906Z,16.73
2023-07-06T01:26:00.298Z,16.72
2023-07-06T01:28:26.984Z,16.69
2023-07-06T01:30:53.916Z,16.70
2023-07-06T01:33:20.322Z,16.75
2023-07-06T01:35:46.841Z,16.72
2023-07-06T01:38:13.226Z,16.73
2023-07-06T01:40:39.704Z,16.74
2023-07-06T01:43:06.103Z,16.74
2023-07-06T01:45:32.478Z,16.72
2023-07-06T01:47:58.921Z,16.71
2023-07-06T01:50:25.335Z,16.69
2023-07-06T01:52:51.681Z,16.66
2023-07-06T01:55:18.065Z,16.66
2023-07-06T01:58:00.210Z,16.62
2023-07-06T02:00:27.636Z,16.62
2023-07-06T02:02:54.427Z,16.63
2023-07-06T02:05:20.824Z,16.62
2023-07-06T02:07:47.296Z,16.62
2023-07-06T02:10:14.086Z,16.60
2023-07-06T02:12:40.725Z,16.65
2023-07-06T02:15:07.125Z,16.59
2023-07-06T02:17:33.523Z,16.55
2023-07-06T02:19:59.976Z,16.54
2023-07-06T02:22:26.422Z,16.52
2023-07-06T02:24:52.774Z,16.49
2023-07-06T02:27:19.145Z,16.46
2023-07-06T02:29:45.609Z,16.42
2023-07-06T02:32:12.190Z,16.32
2023-07-06T02:34:38.640Z,16.16
2023-07-06T02:37:05.268Z,16.11
2023-07-06T02:39:31.650Z,15.98
2023-07-06T02:41:58.163Z,16.02
2023-07-06T02:44:24.528Z,15.98
2023-07-06T02:46:50.967Z,15.92
2023-07-06T02:49:17.436Z,15.89
2023-07-06T02:51:44.332Z,15.92
2023-07-06T02:54:12.837Z,15.95
2023-07-06T02:56:39.214Z,15.94
2023-07-06T02:59:07.889Z,15.90
2023-07-06T03:01:34.503Z,15.95
2023-07-06T03:04:03.698Z,15.94
2023-07-06T03:06:30.094Z,15.91
2023-07-06T03:08:56.551Z,15.83
2023-07-06T03:11:22.983Z,15.79
2023-07-06T03:13:51.007Z,15.70
2023-07-06T03:16:18.815Z,15.75
2023-07-06T03:18:45.445Z,15.74
2023-07-06T03:21:11.838Z,15.72
2023-07-06T03:23:38.244Z,15.69
2023-07-06T03:26:04.618Z,15.65
2023-07-06T03:28:31.031Z,15.67
2023-07-06T03:30:57.404Z,15.74
2023-07-06T03:33:23.796Z,15.75
2023-07-06T03:35:50.245Z,15.62
2023-07-06T03:38:16.621Z,15.46
2023-07-06T03:40:42.968Z,15.35
2023-07-06T03:43:09.402Z,15.46
2023-07-06T03:45:36.557Z,15.52
2023-07-06T03:48:03.085Z,15.50
2023-07-06T03:50:29.543Z,15.51
2023-07-06T03:52:56.319Z,15.53
2023-07-06T03:55:22.730Z,15.48
2023-07-06T03:58:02.848Z,15.46
2023-07-06T04:00:30.658Z,15.49
2023-07-06T04:02:57.277Z,15.47
2023-07-06T04:05:25.125Z,15.48
2023-07-06T04:07:53.731Z,15.49
2023-07-06T04:10:20.152Z,15.56
2023-07-06T04:12:47.340Z,15.54
2023-07-06T04:15:13.741Z,15.51
2023-07-06T04:17:40.782Z,15.48
2023-07-06T04:20:07.190Z,15.51
2023-07-06T04:22:33.669Z,15.54
2023-07-06T04:25:00.173Z,15.60
2023-07-06T04:27:26.520Z,15.66
2023-07-06T04:29:53.071Z,15.66
2023-07-06T04:32:19.564Z,15.73
2023-07-06T04:34:46.012Z,15.69
2023-07-06T04:37:12.567Z,15.76
2023-07-06T04:39:39.325Z,15.83
2023-07-06T04:42:05.690Z,15.86
2023-07-06T04:44:34.314Z,15.94
2023-07-06T04:47:01.622Z,15.98
2023-07-06T04:49:27.965Z,16.01
2023-07-06T04:51:55.340Z,16.05
2023-07-06T04:54:21.715Z,16.09
2023-07-06T04:56:48.107Z,16.33
2023-07-06T04:59:16.762Z,16.34
2023-07-06T05:01:43.217Z,16.28
2023-07-06T05:04:10.489Z,16.35
2023-07-06T05:06:36.989Z,16.46
2023-07-06T05:09:03.368Z,16.53
2023-07-06T05:11:29.770Z,16.64
2023-07-06T05:13:56.195Z,16.78
2023-07-06T05:16:22.640Z,16.82
2023-07-06T05:18:49.028Z,16.91
2023-07-06T05:21:16.149Z,16.92
2023-07-06T05:23:42.651Z,16.99
2023-07-06T05:26:09.019Z,17.13
2023-07-06T05:28:35.367Z,17.25
2023-07-06T05:31:01.797Z,17.15
2023-07-06T05:33:28.216Z,17.26
2023-07-06T05:35:55.201Z,17.29
2023-07-06T05:38:22.175Z,17.37
2023-07-06T05:40:48.751Z,17.36
2023-07-06T05:43:15.155Z,17.45
2023-07-06T05:45:41.561Z,17.50
2023-07-06T05:48:08.193Z,17.49
2023-07-06T05:50:34.578Z,17.45
2023-07-06T05:53:00.951Z,17.39
2023-07-06T05:55:27.559Z,17.10
2023-07-06T05:57:53.997Z,17.03
2023-07-06T06:00:20.339Z,17.14
2023-07-06T06:02:46.895Z,17.35
2023-07-06T06:05:13.370Z,17.66
2023-07-06T06:07:40.010Z,17.91
2023-07-06T06:10:06.394Z,18.14
2023-07-06T06:12:32.761Z,18.22
2023-07-06T06:14:59.554Z,17.81
2023-07-06T06:17:28.542Z,17.40
2023-07-06T06:19:55.246Z,17.12
2023-07-06T06:22:21.622Z,17.20
2023-07-06T06:24:48.128Z,17.29
2023-07-06T06:27:14.665Z,17.40
2023-07-06T06:29:41.062Z,17.39
2023-07-06T06:32:07.524Z,17.50
2023-07-06T06:34:33.950Z,17.73
2023-07-06T06:37:00.565Z,17.87
2023-07-06T06:39:27.012Z,17.78
2023-07-06T06:41:53.551Z,17.93
2023-07-06T06:44:20.201Z,18.00
2023-07-06T06:46:46.775Z,17.87
2023-07-06T06:49:13.400Z,17.68
2023-07-06T06:51:39.786Z,17.92
2023-07-06T06:54:06.164Z,18.14
2023-07-06T06:56:32.629Z,18.13
2023-07-06T06:58:59.012Z,17.99
2023-07-06T07:01:27.912Z,18.00
2023-07-06T07:03:54.460Z,18.20
2023-07-06T07:06:21.032Z,18.48
2023-07-06T07:08:47.713Z,18.66
2023-07-06T07:11:23.098Z,18.71
2023-07-06T07:13:50.754Z,18.89
2023-07-06T07:16:17.520Z,19.09
2023-07-06T07:18:44.011Z,19.23
2023-07-06T07:21:10.365Z,19.32
2023-07-06T07:23:37.088Z,19.28
2023-07-06T07:26:03.513Z,18.99
2023-07-06T07:28:29.885Z,18.98
2023-07-06T07:30:56.277Z,19.05
2023-07-06T07:33:22.688Z,18.93
2023-07-06T07:35:51.315Z,19.07
2023-07-06T07:38:17.673Z,18.92
2023-07-06T07:40:44.087Z,18.84
2023-07-06T07:43:10.428Z,19.16
2023-07-06T07:45:36.809Z,19.22
2023-07-06T07:48:03.262Z,19.40
2023-07-06T07:50:29.724Z,18.84
2023-07-06T07:52:56.072Z,18.94
2023-07-06T07:55:22.447Z,19.37
2023-07-06T07:57:48.831Z,19.91
2023-07-06T08:00:15.213Z,20.31
2023-07-06T08:02:41.670Z,20.62
2023-07-06T08:05:08.108Z,21.00
2023-07-06T08:07:34.749Z,20.76
2023-07-06T08:10:01.136Z,20.96
2023-07-06T08:12:27.605Z,21.42
2023-07-06T08:14:54.022Z,21.34
2023-07-06T08:17:20.764Z,21.65
2023-07-06T08:19:53.081Z,21.13
2023-07-06T08:22:33.631Z,21.07
2023-07-06T08:25:00.241Z,20.50
2023-07-06T08:27:26.581Z,20.79
2023-07-06T08:29:53.020Z,20.51
2023-07-06T08:32:22.204Z,20.53
2023-07-06T08:34:48.767Z,21.14
2023-07-06T08:37:15.256Z,20.54
2023-07-06T08:39:41.599Z,20.81
2023-07-06T08:42:07.932Z,21.09
2023-07-06T08:44:34.286Z,21.33
2023-07-06T08:47:00.819Z,21.48
2023-07-06T08:49:29.896Z,21.97
2023-07-06T08:51:57.151Z,22.48
2023-07-06T08:54:23.526Z,22.66
2023-07-06T08:56:49.959Z,22.76
2023-07-06T08:59:16.295Z,21.88
2023-07-06T09:01:43.090Z,21.69
2023-07-06T09:04:09.704Z,21.80
2023-07-06T09:06:36.053Z,21.66
2023-07-06T09:09:02.419Z,22.19
2023-07-06T09:11:28.757Z,22.69
2023-07-06T09:13:55.255Z,22.79
2023-07-06T09:16:21.836Z,22.74
2023-07-06T09:18:48.392Z,23.02
2023-07-06T09:21:14.999Z,23.28
2023-07-06T09:23:41.397Z,23.45
2023-07-06T09:26:14.217Z,23.30
2023-07-06T09:28:46.909Z,22.35
2023-07-06T09:31:13.320Z,22.62
2023-07-06T09:33:39.707Z,22.90
2023-07-06T09:36:06.369Z,22.91
2023-07-06T09:38:33.766Z,23.17
2023-07-06T09:41:00.207Z,23.40
2023-07-06T09:43:26.616Z,23.71
2023-07-06T09:45:53.057Z,23.44
2023-07-06T09:48:19.921Z,22.97
2023-07-06T09:50:46.496Z,22.58
2023-07-06T09:53:12.954Z,22.07
2023-07-06T09:55:39.446Z,21.74
2023-07-06T09:58:08.078Z,21.78
2023-07-06T10:00:34.582Z,22.09
2023-07-06T10:03:01.076Z,22.29
2023-07-06T10:05:27.797Z,22.55
2023-07-06T10:07:54.177Z,22.83
2023-07-06T10:10:20.903Z,23.17
2023-07-06T10:12:52.949Z,23.29
2023-07-06T10:15:19.342Z,23.61
2023-07-06T10:20:27.859Z,23.38
2023-07-06T10:22:54.259Z,23.50
2023-07-06T10:25:20.781Z,23.35
2023-07-06T10:27:53.794Z,22.34
2023-07-06T10:30:20.514Z,22.55
2023-07-06T10:38:09.645Z,23.05
2023-07-06T10:40:36.044Z,23.32
2023-07-06T10:43:02.437Z,23.54
2023-07-06T10:45:29.054Z,23.08
2023-07-06T10:47:55.529Z,22.61
2023-07-06T10:50:21.915Z,23.13
2023-07-06T10:52:48.260Z,23.50
2023-07-06T11:03:07.939Z,23.45
2023-07-06T11:05:37.127Z,22.90
2023-07-06T11:08:05.123Z,22.78
2023-07-06T11:10:31.509Z,23.24
2023-07-06T11:12:57.972Z,22.67
2023-07-06T11:15:24.691Z,22.52
2023-07-06T11:17:51.249Z,22.47
2023-07-06T11:20:17.644Z,22.87
2023-07-06T11:22:44.249Z,23.07
2023-07-06T11:25:10.625Z,23.00
2023-07-06T11:27:37.098Z,22.79
2023-07-06T11:30:03.485Z,22.55
2023-07-06T11:32:29.903Z,22.35
2023-07-06T11:34:56.303Z,22.21
2023-07-06T11:37:23.692Z,22.30
2023-07-06T11:39:50.131Z,22.61
2023-07-06T11:42:16.614Z,23.19
2023-07-06T11:44:42.991Z,23.54
2023-07-06T11:47:09.435Z,23.93
2023-07-06T11:49:35.966Z,24.18
2023-07-06T11:52:02.328Z,24.32
2023-07-06T11:54:28.673Z,24.63
2023-07-06T11:56:55.199Z,24.87
2023-07-06T11:59:21.616Z,24.82
2023-07-06T12:01:48.072Z,24.99
2023-07-06T12:04:14.472Z,24.40
2023-07-06T12:06:40.912Z,24.19
2023-07-06T12:09:07.302Z,24.54
2023-07-06T12:11:33.846Z,24.84
2023-07-06T12:14:00.288Z,24.62
2023-07-06T12:16:26.803Z,23.94
2023-07-06T12:18:53.639Z,23.92
2023-07-06T12:21:20.017Z,24.28
2023-07-06T12:23:46.406Z,23.80
2023-07-06T12:26:12.912Z,23.29
2023-07-06T12:28:39.383Z,23.40
2023-07-06T12:31:05.880Z,23.59
2023-07-06T12:33:32.359Z,23.95
2023-07-06T12:35:59.183Z,23.50
2023-07-06T12:38:25.824Z,24.05
2023-07-06T12:40:52.293Z,23.83
2023-07-06T12:43:18.676Z,24.07
2023-07-06T12:45:45.148Z,24.06
2023-07-06T12:48:11.607Z,24.13
2023-07-06T12:50:38.456Z,24.65
2023-07-06T12:53:04.801Z,24.96
2023-07-06T12:55:31.146Z,25.25
2023-07-06T12:57:57.497Z,25.55
2023-07-06T13:00:23.885Z,25.77
2023-07-06T13:02:51.454Z,25.99
2023-07-06T13:05:18.061Z,26.01
2023-07-06T13:07:46.798Z,25.89
2023-07-06T13:10:13.145Z,25.76
2023-07-06T13:12:39.483Z,26.05
2023-07-06T13:15:06.199Z,25.98
2023-07-06T13:17:32.704Z,25.75
2023-07-06T13:19:59.218Z,25.31
2023-07-06T13:22:25.624Z,24.40
2023-07-06T13:24:53.359Z,24.27
2023-07-06T13:27:19.736Z,24.90
2023-07-06T13:29:46.184Z,25.12
2023-07-06T13:32:12.585Z,25.01
2023-07-06T13:34:39.025Z,25.35
2023-07-06T13:37:05.506Z,25.43
2023-07-06T13:39:31.884Z,25.65
2023-07-06T13:41:58.345Z,25.66
2023-07-06T13:44:24.694Z,25.63
2023-07-06T13:46:51.083Z,25.26
2023-07-06T13:49:17.638Z,24.66
2023-07-06T13:51:44.140Z,24.94
2023-07-06T13:54:10.535Z,25.37
2023-07-06T13:56:36.904Z,25.55
2023-07-06T13:59:03.257Z,25.23
2023-07-06T14:01:29.617Z,25.30
2023-07-06T14:03:56.133Z,25.47
2023-07-06T14:06:22.659Z,25.41
2023-07-06T14:08:49.372Z,25.68
2023-07-06T14:11:15.766Z,25.96
2023-07-06T14:13:45.314Z,26.11
2023-07-06T14:16:12.677Z,26.20
2023-07-06T14:18:39.147Z,26.40
2023-07-06T14:21:05.529Z,26.42
2023-07-06T14:23:32.349Z,26.59
2023-07-06T14:25:58.989Z,26.84
2023-07-06T14:28:25.575Z,26.89
2023-07-06T14:30:51.989Z,26.93
2023-07-06T14:33:18.333Z,26.99
2023-07-06T14:35:47.999Z,26.65
2023-07-06T14:38:15.595Z,26.02
2023-07-06T14:40:43.033Z,26.27
2023-07-06T14:43:09.695Z,26.59
2023-07-06T14:45:36.060Z,26.83
2023-07-06T14:48:05.805Z,25.79
2023-07-06T14:50:32.195Z,25.68
2023-07-06T14:53:00.907Z,25.47
2023-07-06T14:55:27.301Z,25.48
2023-07-06T14:57:54.737Z,25.66
2023-07-06T15:00:21.147Z,25.76
2023-07-06T15:02:49.841Z,26.22
2023-07-06T15:05:16.352Z,26.49
2023-07-06T15:07:44.978Z,26.56
2023-07-06T15:10:11.682Z,26.74
2023-07-06T15:12:38.374Z,26.71
2023-07-06T15:15:04.729Z,26.70
2023-07-06T15:17:31.488Z,26.86
2023-07-06T15:19:58.029Z,26.13
2023-07-06T15:22:24.426Z,26.00
2023-07-06T15:24:55.240Z,26.29
2023-07-06T15:27:22.354Z,26.65
2023-07-06T15:29:49.246Z,26.45
2023-07-06T15:32:15.983Z,26.46
2023-07-06T15:34:55.916Z,26.81
2023-07-06T15:37:26.126Z,26.23
2023-07-06T15:39:52.532Z,26.22
2023-07-06T16:17:12.113Z,25.82
2023-07-06T16:19:38.548Z,25.60
2023-07-06T16:22:04.921Z,25.92
2023-07-06T16:24:31.266Z,25.28
2023-07-06T16:27:01.724Z,25.74
2023-07-06T16:29:28.360Z,25.69
2023-07-06T16:31:54.730Z,25.81
2023-07-06T16:34:21.124Z,25.68
2023-07-06T16:36:47.501Z,25.15
2023-07-06T16:39:13.849Z,24.99
2023-07-06T16:41:40.224Z,24.89
2023-07-06T16:44:06.718Z,25.07
2023-07-06T16:46:33.163Z,25.35
2023-07-06T16:48:59.631Z,25.42
2023-07-06T16:51:26.015Z,25.37
2023-07-06T16:53:53.406Z,25.87
2023-07-06T16:56:21.832Z,26.06
2023-07-06T16:58:48.575Z,26.04
2023-07-06T17:01:15.287Z,26.30
2023-07-06T17:03:42.000Z,26.54
2023-07-06T17:06:08.434Z,26.70
2023-07-06T17:08:34.861Z,26.39
2023-07-06T17:11:01.365Z,26.72
2023-07-06T17:13:27.945Z,26.23
2023-07-06T17:15:54.607Z,25.91
2023-07-06T17:18:22.257Z,26.33
2023-07-06T17:20:50.688Z,26.36
2023-07-06T17:23:22.274Z,26.31
2023-07-06T17:25:48.634Z,26.55
2023-07-06T17:28:15.223Z,26.65
2023-07-06T17:30:42.578Z,26.56
2023-07-06T17:33:08.943Z,26.18
2023-07-06T17:35:36.463Z,26.00
2023-07-06T17:38:03.780Z,26.21
2023-07-06T17:48:36.261Z,26.41
2023-07-06T17:51:04.723Z,26.59
2023-07-06T17:53:31.099Z,26.60
2023-07-06T17:55:57.788Z,26.69
2023-07-06T17:58:24.367Z,26.66
2023-07-06T18:00:50.754Z,26.70
2023-07-06T18:03:17.607Z,26.78
2023-07-06T18:05:44.309Z,26.75
2023-07-06T18:08:12.921Z,26.75
2023-07-06T18:10:39.261Z,26.75
2023-07-06T18:13:05.640Z,26.68
2023-07-06T18:15:32.034Z,26.59
2023-07-06T18:18:00.677Z,26.59
2023-07-06T18:20:35.174Z,26.56
2023-07-06T18:23:01.653Z,26.56
2023-07-06T18:25:28.311Z,26.51
2023-07-06T18:27:56.974Z,26.38
2023-07-06T18:30:25.537Z,26.37
2023-07-06T18:32:52.067Z,26.35
2023-07-06T18:35:18.554Z,26.31
2023-07-06T18:37:44.892Z,26.21
2023-07-06T18:40:11.264Z,26.09
2023-07-06T18:42:37.648Z,25.98
2023-07-06T18:45:06.124Z,25.94
2023-07-06T18:47:33.013Z,25.88
2023-07-06T18:49:59.530Z,25.75
2023-07-06T18:52:33.119Z,25.60
2023-07-06T18:55:02.054Z,25.42
2023-07-06T18:57:30.772Z,25.26
2023-07-06T19:08:05.173Z,24.71
2023-07-06T19:10:31.569Z,24.59
2023-07-06T19:12:57.961Z,24.46
2023-07-06T19:15:24.820Z,24.33
2023-07-06T19:17:51.212Z,24.18
2023-07-06T19:20:17.635Z,24.05
2023-07-06T19:22:45.100Z,23.92
2023-07-06T19:25:11.575Z,23.81
2023-07-06T19:27:37.965Z,23.67
2023-07-06T19:30:04.332Z,23.56
2023-07-06T19:32:30.724Z,23.47
2023-07-06T19:34:57.162Z,23.37
2023-07-06T19:37:23.534Z,23.29
2023-07-06T19:39:49.930Z,23.25
2023-07-06T19:42:16.294Z,23.15
2023-07-06T19:44:42.649Z,23.06
2023-07-06T19:47:09.074Z,22.91
2023-07-06T19:49:35.522Z,22.75
2023-07-06T19:52:01.875Z,22.63
2023-07-06T19:54:28.243Z,22.55
2023-07-06T19:56:56.822Z,22.43
2023-07-06T19:59:24.064Z,22.31
2023-07-06T20:01:50.596Z,22.23
2023-07-06T20:04:17.241Z,22.17
2023-07-06T20:06:43.976Z,22.12
2023-07-06T20:09:12.428Z,22.07
2023-07-06T20:11:38.806Z,22.02
2023-07-06T20:14:05.342Z,21.99
2023-07-06T20:16:32.411Z,21.94
2023-07-06T20:18:59.204Z,21.88
2023-07-06T20:21:25.583Z,21.81
2023-07-06T20:23:51.968Z,21.78
2023-07-06T20:26:18.310Z,21.72
2023-07-06T20:28:44.709Z,21.67
2023-07-06T20:31:11.091Z,21.63
2023-07-06T20:33:37.488Z,21.59
2023-07-06T20:36:03.896Z,21.51
2023-07-06T20:38:30.282Z,21.40
2023-07-06T20:40:57.370Z,21.19
2023-07-06T20:43:23.981Z,21.08
2023-07-06T20:45:50.370Z,21.03
2023-07-06T20:48:16.727Z,21.01
2023-07-06T20:50:43.133Z,20.81
2023-07-06T20:53:09.516Z,20.67
2023-07-06T20:55:35.868Z,20.58
2023-07-06T20:58:02.210Z,20.37
2023-07-06T21:00:28.638Z,20.21
2023-07-06T21:02:55.077Z,20.06
2023-07-06T21:05:21.438Z,19.99
2023-07-06T21:07:47.805Z,19.97
2023-07-06T21:10:14.184Z,19.96
2023-07-06T21:12:40.573Z,19.96
2023-07-06T21:15:06.956Z,19.96
2023-07-06T21:17:33.355Z,19.92
2023-07-06T21:19:59.724Z,19.90
2023-07-06T21:22:26.102Z,19.89
2023-07-06T21:24:52.478Z,19.82
2023-07-06T21:27:18.862Z,19.88
2023-07-06T21:29:45.217Z,19.90
2023-07-06T21:32:11.791Z,19.92
2023-07-06T21:34:38.284Z,19.91
2023-07-06T21:37:04.676Z,19.92
2023-07-06T21:39:31.092Z,19.86
2023-07-06T21:41:57.460Z,19.78
2023-07-06T21:44:23.861Z,19.66
2023-07-06T21:46:50.252Z,19.51
2023-07-06T21:49:16.635Z,19.38
2023-07-06T21:51:43.219Z,19.22
2023-07-06T21:54:09.591Z,19.09
2023-07-06T21:56:35.926Z,18.97
2023-07-06T21:59:02.322Z,18.87
2023-07-06T22:01:28.763Z,18.82
2023-07-06T22:03:55.187Z,18.82
2023-07-06T22:06:21.634Z,18.71
2023-07-06T22:08:48.034Z,18.61
2023-07-06T22:11:14.394Z,18.53
2023-07-06T22:13:40.809Z,18.46
2023-07-06T22:16:07.282Z,18.33
2023-07-06T22:18:33.715Z,18.33
2023-07-06T22:21:00.336Z,18.29
2023-07-06T22:23:26.854Z,18.23
2023-07-06T22:25:53.247Z,18.20
2023-07-06T22:28:19.623Z,18.19
2023-07-06T22:30:46.057Z,18.10
2023-07-06T22:33:12.410Z,18.07
2023-07-06T22:35:38.789Z,17.95
2023-07-06T22:38:05.146Z,17.96
2023-07-06T22:40:31.497Z,17.86
2023-07-06T22:42:57.877Z,17.80
2023-07-06T22:45:24.269Z,17.73
2023-07-06T22:47:50.674Z,17.73
2023-07-06T22:50:17.088Z,17.69
2023-07-06T22:52:43.444Z,17.65
2023-07-06T22:55:09.820Z,17.69
2023-07-06T22:57:36.185Z,17.70
2023-07-06T23:00:02.558Z,17.70
2023-07-06T23:02:29.075Z,17.69
2023-07-06T23:04:55.521Z,17.69
2023-07-06T23:07:21.865Z,17.66
2023-07-06T23:09:48.217Z,17.62
2023-07-06T23:12:14.575Z,17.62
2023-07-06T23:14:40.918Z,17.61
2023-07-06T23:17:07.556Z,17.60
2023-07-06T23:19:34.009Z,17.40
2023-07-06T23:22:00.407Z,17.31
2023-07-06T23:24:26.783Z,17.28
2023-07-06T23:26:53.157Z,17.25
2023-07-06T23:29:19.559Z,17.07
2023-07-06T23:31:46.845Z,16.95
2023-07-06T23:34:13.706Z,16.90
2023-07-06T23:36:40.084Z,16.85
2023-07-06T23:39:06.489Z,16.80
2023-07-06T23:41:32.865Z,16.77
2023-07-06T23:43:59.233Z,16.69
2023-07-06T23:46:25.628Z,16.65
2023-07-06T23:48:52.057Z,16.61
2023-07-06T23:51:18.442Z,16.51
2023-07-06T23:53:44.828Z,16.40
2023-07-06T23:56:11.209Z,16.44
2023-07-06T23:58:37.590Z,16.45
